LTAL

Kastamonu

Kastamonu, Turkey
TAF LTAL 231040Z 2312/2321 VRB02KT CAVOK
Issued Valid From Valid To
Sep-23 @ 10:40 UTC
(4 hours ago)
Sep-23 @ 12:00 UTC
(2 hours ago)
Sep-23 @ 21:00 UTC
(in 7 hours)
to
TAF LTAL 231040Z 2312/2321 VRB02KT CAVOK
Issued Sep-23 @ 10:40 UTC
(4 hours ago)
Valid From Sep-23 @ 12:00 UTC
(2 hours ago)
Valid To Sep-23 @ 21:00 UTC
(in 7 hours)
-